Time;durP1;ratioP1;P1;durP2;ratioP2;P2;SDS_P1;SDS_P2;PMS_P1;PMS_P2;Temp;Humidity;BMP_temperature;BMP_pressure;BME280_temperature;BME280_humidity;BME280_pressure;Samples;Min_cycle;Max_cycle;Signal;HPM_P1;HPM_P2
2022/06/09 07:55:03;;;;;;;19.15;3.45;;;16.20;99.90;;;;;;5095372;27;20801;-48
2022/06/09 07:57:30;;;;;;;17.42;2.88;;;16.30;99.90;;;;;;5088137;28;20039;-50
2022/06/09 07:59:56;;;;;;;13.88;3.60;;;16.40;99.90;;;;;;5087762;28;20048;-50
2022/06/09 08:02:23;;;;;;;13.45;3.33;;;16.50;99.90;;;;;;5090880;28;20055;-51
2022/06/09 08:04:50;;;;;;;17.02;3.40;;;16.50;99.90;;;;;;5096358;28;20028;-50
2022/06/09 08:07:17;;;;;;;14.43;3.67;;;16.40;99.90;;;;;;5094632;28;20457;-48
2022/06/09 08:09:44;;;;;;;14.98;3.38;;;16.50;99.90;;;;;;5090720;28;20040;-52
2022/06/09 08:12:10;;;;;;;16.58;3.53;;;16.50;99.90;;;;;;5090298;28;20415;-50
2022/06/09 08:14:37;;;;;;;12.95;2.65;;;16.50;99.90;;;;;;5088129;28;20158;-53
2022/06/09 08:17:05;;;;;;;16.75;3.58;;;16.50;99.90;;;;;;5092495;28;20533;-52
2022/06/09 08:19:32;;;;;;;13.32;3.40;;;16.60;99.90;;;;;;5089232;28;20040;-51
2022/06/09 08:21:58;;;;;;;13.88;3.20;;;16.60;99.90;;;;;;5088612;28;20044;-50
2022/06/09 08:24:25;;;;;;;17.95;3.30;;;16.70;99.50;;;;;;5089509;28;20048;-52
2022/06/09 08:26:52;;;;;;;13.70;3.13;;;16.80;99.30;;;;;;5087010;28;20041;-54
2022/06/09 08:29:23;;;;;;;17.30;3.67;;;16.80;99.90;;;;;;5089406;28;20048;-50
2022/06/09 08:31:50;;;;;;;12.43;3.20;;;16.90;99.60;;;;;;5088471;28;20534;-49
2022/06/09 08:34:17;;;;;;;12.48;3.05;;;17.00;99.60;;;;;;5085276;28;20041;-53
2022/06/09 08:36:44;;;;;;;13.93;3.55;;;16.90;98.80;;;;;;5089266;28;20066;-52
2022/06/09 08:39:11;;;;;;;16.70;2.67;;;17.00;98.40;;;;;;5089709;28;20491;-51
2022/06/09 08:41:38;;;;;;;13.52;3.28;;;17.00;98.70;;;;;;5089376;28;20101;-49
2022/06/09 08:44:11;;;;;;;11.07;3.20;;;17.00;98.20;;;;;;5088902;28;20040;-56
2022/06/09 08:46:38;;;;;;;12.40;3.20;;;17.10;97.50;;;;;;5084176;28;20135;-53
2022/06/09 08:49:04;;;;;;;12.98;2.35;;;17.10;97.50;;;;;;5093995;28;20048;-47
2022/06/09 08:51:31;;;;;;;10.35;2.50;;;17.20;96.60;;;;;;5089193;28;20082;-49
2022/06/09 08:53:58;;;;;;;12.35;3.13;;;17.20;96.10;;;;;;5086812;28;20049;-50
2022/06/09 08:56:26;;;;;;;10.57;2.65;;;17.30;96.00;;;;;;5089136;28;20499;-52
2022/06/09 08:58:52;;;;;;;10.40;2.85;;;17.40;95.80;;;;;;5090130;28;20055;-51
2022/06/09 09:01:25;;;;;;;11.93;2.40;;;17.40;95.80;;;;;;5091114;28;20487;-55
2022/06/09 09:03:52;;;;;;;8.55;2.15;;;17.50;96.20;;;;;;5098352;28;20435;-50
2022/06/09 09:06:18;;;;;;;10.27;2.40;;;17.70;95.00;;;;;;5085631;28;20039;-52
2022/06/09 09:08:45;;;;;;;9.07;1.92;;;17.80;95.30;;;;;;5074834;28;20460;-52
2022/06/09 09:11:12;;;;;;;10.82;3.15;;;17.90;95.10;;;;;;5075190;28;20054;-51
2022/06/09 09:13:39;;;;;;;12.00;2.63;;;18.10;95.20;;;;;;5075201;28;20045;-54
2022/06/09 09:16:05;;;;;;;9.45;2.25;;;18.20;94.60;;;;;;5075186;28;20051;-52
2022/06/09 09:18:35;;;;;;;12.68;2.60;;;18.30;94.20;;;;;;5075670;28;20099;-55
2022/06/09 09:21:02;;;;;;;9.50;1.90;;;18.40;93.30;;;;;;5075281;28;20048;-53
2022/06/09 09:23:29;;;;;;;11.95;2.75;;;18.50;93.50;;;;;;5075085;28;20037;-52
2022/06/09 09:25:56;;;;;;;7.35;2.10;;;18.60;93.60;;;;;;5075410;28;20051;-54
2022/06/09 09:28:23;;;;;;;6.45;1.77;;;18.70;92.40;;;;;;5074234;28;20060;-51
2022/06/09 09:30:50;;;;;;;9.32;2.60;;;18.70;92.20;;;;;;5073789;28;20037;-52
2022/06/09 09:33:17;;;;;;;8.13;2.20;;;18.80;92.80;;;;;;5073273;28;20472;-55
2022/06/09 09:35:43;;;;;;;11.75;2.53;;;19.00;92.70;;;;;;5071207;28;20067;-48
2022/06/09 09:38:10;;;;;;;10.85;2.90;;;19.00;92.60;;;;;;5074817;28;20045;-49
2022/06/09 09:40:37;;;;;;;9.80;2.25;;;19.10;91.60;;;;;;5074029;28;20041;-50
2022/06/09 09:43:04;;;;;;;11.32;2.65;;;19.20;91.70;;;;;;5074379;28;20041;-50
2022/06/09 09:45:30;;;;;;;11.55;2.53;;;19.20;91.90;;;;;;5072702;28;20036;-52
2022/06/09 09:48:00;;;;;;;8.48;2.00;;;19.30;91.40;;;;;;5079217;28;20045;-51
2022/06/09 09:50:28;;;;;;;10.52;2.30;;;19.50;91.50;;;;;;5074512;28;20375;-50
2022/06/09 09:52:54;;;;;;;11.45;2.78;;;19.60;90.80;;;;;;5072347;28;20098;-53
2022/06/09 09:55:21;;;;;;;7.18;2.42;;;19.60;91.40;;;;;;5074004;28;20043;-52
2022/06/09 09:57:48;;;;;;;9.75;2.40;;;19.80;90.30;;;;;;5072165;28;20040;-51
2022/06/09 10:00:14;;;;;;;10.13;2.47;;;19.70;89.80;;;;;;5074111;28;20039;-50
2022/06/09 10:09:04;;;;;;;9.52;2.42;;;20.10;90.90;;;;;;5074025;28;20426;-49
2022/06/09 10:14:34;;;;;;;12.32;2.50;;;20.30;88.90;;;;;;5068753;28;20043;-50
2022/06/09 10:17:01;;;;;;;8.48;2.25;;;20.30;88.00;;;;;;5075864;28;20113;-49
2022/06/09 10:19:45;;;;;;;10.55;2.42;;;20.30;88.80;;;;;;5072388;28;20111;-50
2022/06/09 10:22:12;;;;;;;12.93;2.67;;;20.40;88.60;;;;;;5070260;28;20040;-49
2022/06/09 10:24:39;;;;;;;15.13;2.60;;;20.50;87.50;;;;;;5072339;28;20033;-45
2022/06/09 10:27:08;;;;;;;8.45;1.92;;;20.60;86.50;;;;;;5066119;28;20112;-48
2022/06/09 10:29:36;;;;;;;10.75;2.55;;;20.70;85.30;;;;;;5070424;28;20075;-49
2022/06/09 10:32:03;;;;;;;7.00;2.03;;;20.90;87.00;;;;;;5066520;28;20484;-47
2022/06/09 10:34:29;;;;;;;9.32;3.05;;;21.00;84.50;;;;;;5071524;28;20043;-48
2022/06/09 10:36:56;;;;;;;11.23;3.33;;;21.00;84.50;;;;;;5068589;28;20044;-50
2022/06/09 10:39:23;;;;;;;8.60;2.55;;;21.00;85.30;;;;;;5072275;28;20037;-46
2022/06/09 10:41:50;;;;;;;8.38;2.10;;;21.10;85.40;;;;;;5068386;28;20098;-53
2022/06/09 10:44:16;;;;;;;9.32;2.40;;;21.20;84.50;;;;;;5072522;28;20036;-58
2022/06/09 10:46:43;;;;;;;14.45;2.30;;;21.10;83.80;;;;;;5070946;28;20511;-54
2022/06/09 10:55:14;;;;;;;8.85;2.53;;;21.10;83.60;;;;;;5053408;28;20120;-55
2022/06/09 10:57:42;;;;;;;9.13;2.00;;;21.10;84.80;;;;;;5069378;28;20037;-54
2022/06/09 11:00:14;;;;;;;6.82;2.38;;;21.20;85.30;;;;;;5068460;28;20029;-56
2022/06/09 11:02:41;;;;;;;8.43;2.40;;;21.30;84.90;;;;;;5072911;28;20045;-53
2022/06/09 11:05:08;;;;;;;10.23;2.65;;;21.40;83.30;;;;;;5071567;28;20094;-55
2022/06/09 11:07:35;;;;;;;11.15;2.42;;;21.60;83.90;;;;;;5064465;28;20060;-55
2022/06/09 11:10:02;;;;;;;6.18;2.00;;;21.70;83.10;;;;;;5073069;28;20107;-58
2022/06/09 11:12:28;;;;;;;10.65;2.30;;;21.80;82.50;;;;;;5065888;28;20043;-51
2022/06/09 11:14:55;;;;;;;13.93;2.53;;;21.80;81.70;;;;;;5066463;28;20040;-57
2022/06/09 11:17:22;;;;;;;8.77;2.47;;;21.50;81.80;;;;;;5072524;28;20048;-51
2022/06/09 11:19:49;;;;;;;8.10;2.50;;;21.50;81.00;;;;;;5074460;28;20395;-54
2022/06/09 11:22:16;;;;;;;6.13;1.95;;;21.50;81.90;;;;;;5073324;28;20048;-52
2022/06/09 11:24:43;;;;;;;8.70;2.90;;;21.40;81.20;;;;;;5070614;28;20537;-51
2022/06/09 11:27:10;;;;;;;10.65;2.70;;;21.40;81.80;;;;;;5067539;28;20040;-51
2022/06/09 11:29:36;;;;;;;10.80;3.30;;;21.40;82.70;;;;;;5069862;28;20036;-53
2022/06/09 11:32:04;;;;;;;10.73;2.78;;;21.40;83.60;;;;;;5065939;28;20048;-52
2022/06/09 11:34:30;;;;;;;9.68;2.58;;;21.40;82.00;;;;;;5063886;28;20052;-58
2022/06/09 11:36:57;;;;;;;9.57;2.58;;;21.40;81.50;;;;;;5071038;28;20407;-50
2022/06/09 11:39:24;;;;;;;10.15;3.15;;;21.40;82.00;;;;;;5068552;28;20044;-54
2022/06/09 11:41:51;;;;;;;9.48;2.58;;;21.40;81.50;;;;;;5073071;28;20052;-56
2022/06/09 11:44:18;;;;;;;10.48;2.92;;;21.20;81.40;;;;;;5072567;28;20032;-54
2022/06/09 11:46:44;;;;;;;9.68;2.47;;;21.10;81.00;;;;;;5065915;28;20045;-53
2022/06/09 11:49:11;;;;;;;8.95;2.33;;;21.00;80.80;;;;;;5069794;28;20436;-51
2022/06/09 11:51:38;;;;;;;9.25;2.15;;;20.90;82.40;;;;;;5067814;28;20119;-52
2022/06/09 11:54:05;;;;;;;8.63;2.38;;;20.90;82.90;;;;;;5068769;28;20078;-53
2022/06/09 11:56:45;;;;;;;11.13;2.65;;;21.10;83.10;;;;;;5069395;28;20481;-57
2022/06/09 11:59:11;;;;;;;10.63;2.40;;;21.20;83.50;;;;;;5077389;28;20048;-51
2022/06/09 12:01:38;;;;;;;11.77;2.50;;;21.30;83.90;;;;;;5072680;28;20048;-52
2022/06/09 12:04:10;;;;;;;10.50;2.50;;;21.40;84.20;;;;;;5074453;28;20045;-53
2022/06/09 12:06:37;;;;;;;10.80;2.75;;;21.50;83.90;;;;;;5072319;28;20044;-50
2022/06/09 12:09:03;;;;;;;8.73;2.58;;;21.50;83.60;;;;;;5075423;28;20032;-48
2022/06/09 12:11:30;;;;;;;8.38;2.40;;;21.50;83.90;;;;;;5072770;28;20036;-48
2022/06/09 12:13:57;;;;;;;11.75;4.47;;;21.60;83.60;;;;;;5071683;28;20044;-50
2022/06/09 12:16:24;;;;;;;9.98;2.58;;;21.70;81.60;;;;;;5070348;28;20126;-50
2022/06/09 12:18:50;;;;;;;11.30;2.35;;;21.70;81.20;;;;;;5073209;28;20040;-51
2022/06/09 12:21:17;;;;;;;11.30;2.22;;;21.60;81.80;;;;;;5071793;28;20180;-54
2022/06/09 12:23:44;;;;;;;9.60;2.15;;;21.50;81.90;;;;;;5069227;28;20395;-46
2022/06/09 12:26:11;;;;;;;9.38;2.42;;;21.40;82.00;;;;;;5069846;28;20041;-53
2022/06/09 12:28:38;;;;;;;10.50;2.38;;;21.40;82.30;;;;;;5068303;28;20044;-52
2022/06/09 12:31:05;;;;;;;9.65;2.03;;;21.40;82.10;;;;;;5066251;28;20040;-51
2022/06/09 12:33:32;;;;;;;11.45;2.60;;;21.30;83.60;;;;;;5071115;28;20048;-55
2022/06/09 12:35:59;;;;;;;9.48;2.50;;;21.20;84.50;;;;;;5070355;28;20454;-54
2022/06/09 12:38:26;;;;;;;10.55;2.40;;;21.20;84.40;;;;;;5065717;28;20073;-53
2022/06/09 12:40:53;;;;;;;6.95;2.00;;;21.30;84.50;;;;;;5074284;28;20098;-55
2022/06/09 12:43:20;;;;;;;10.70;2.40;;;21.40;84.00;;;;;;5069765;28;20527;-54
2022/06/09 12:45:47;;;;;;;7.22;2.10;;;21.40;83.20;;;;;;5074872;28;20044;-54
2022/06/09 12:48:13;;;;;;;11.15;2.00;;;21.60;82.80;;;;;;5080230;28;20060;-53
2022/06/09 12:50:40;;;;;;;8.85;2.08;;;21.70;82.60;;;;;;5075879;28;20036;-53
2022/06/09 12:53:07;;;;;;;8.18;1.92;;;22.00;81.90;;;;;;5075747;28;20466;-50
2022/06/09 12:55:35;;;;;;;5.15;1.60;;;22.20;78.80;;;;;;5076192;28;20106;-54
2022/06/09 12:58:02;;;;;;;5.50;1.50;;;22.30;77.10;;;;;;5075924;28;20083;-50
2022/06/09 13:00:32;;;;;;;7.38;2.08;;;22.30;77.20;;;;;;5076152;28;20043;-50
2022/06/09 13:02:59;;;;;;;9.70;1.92;;;22.40;77.80;;;;;;5075725;28;20040;-50
2022/06/09 13:05:27;;;;;;;9.07;1.90;;;22.50;78.30;;;;;;5075689;28;20129;-50
2022/06/09 13:07:54;;;;;;;9.48;2.03;;;22.60;77.40;;;;;;5075866;28;20403;-56
2022/06/09 13:10:20;;;;;;;9.43;2.20;;;22.60;79.30;;;;;;5075917;28;20411;-52
2022/06/09 13:12:50;;;;;;;7.65;2.25;;;22.50;79.60;;;;;;5075645;28;20040;-50
2022/06/09 13:15:17;;;;;;;6.93;2.00;;;22.50;80.10;;;;;;5075637;28;20075;-54
2022/06/09 13:17:44;;;;;;;8.77;2.10;;;22.50;80.00;;;;;;5075613;28;20044;-53
2022/06/09 13:20:11;;;;;;;9.48;2.17;;;22.70;80.30;;;;;;5075791;28;20403;-57
2022/06/09 13:22:37;;;;;;;9.60;1.98;;;22.70;79.40;;;;;;5075709;28;20056;-54
2022/06/09 13:25:04;;;;;;;9.98;2.17;;;22.80;79.50;;;;;;5075167;28;20079;-58
2022/06/09 13:27:31;;;;;;;7.97;1.92;;;22.80;78.70;;;;;;5075592;28;20086;-49
2022/06/09 13:29:58;;;;;;;7.53;2.08;;;22.70;77.50;;;;;;5075428;28;20446;-55
2022/06/09 13:32:25;;;;;;;9.88;2.17;;;22.40;79.20;;;;;;5075368;28;20105;-47
2022/06/09 13:34:51;;;;;;;8.07;1.92;;;22.30;79.70;;;;;;5075235;28;20402;-50
2022/06/09 13:37:18;;;;;;;8.18;2.10;;;22.10;80.80;;;;;;5075533;28;20075;-51
2022/06/09 13:39:45;;;;;;;12.43;2.90;;;22.10;81.50;;;;;;5075158;28;20127;-54
2022/06/09 13:42:14;;;;;;;8.90;2.10;;;22.20;80.60;;;;;;5075291;28;20048;-54
2022/06/09 13:44:41;;;;;;;9.13;2.38;;;22.40;81.00;;;;;;5074189;28;20048;-52
2022/06/09 13:47:08;;;;;;;10.82;2.25;;;22.30;80.30;;;;;;5073672;28;20447;-55
2022/06/09 13:49:35;;;;;;;9.95;2.33;;;22.30;80.40;;;;;;5077766;28;20036;-54
2022/06/09 13:52:03;;;;;;;9.77;2.05;;;22.30;80.60;;;;;;5074927;28;20094;-53
2022/06/09 13:54:30;;;;;;;11.05;2.13;;;22.30;80.10;;;;;;5076040;28;20128;-51
2022/06/09 13:56:56;;;;;;;7.38;2.10;;;22.30;80.60;;;;;;5074872;28;20041;-52
2022/06/09 13:59:23;;;;;;;9.10;2.08;;;22.30;80.00;;;;;;5074822;28;20037;-51
2022/06/09 14:01:50;;;;;;;5.57;1.75;;;22.40;80.20;;;;;;5078392;28;20048;-49
2022/06/09 14:04:17;;;;;;;7.90;1.63;;;22.40;79.10;;;;;;5074580;28;20556;-50
2022/06/09 14:06:43;;;;;;;9.90;1.63;;;22.40;78.00;;;;;;5080351;28;20036;-48
2022/06/09 14:09:10;;;;;;;4.45;1.40;;;22.50;77.10;;;;;;5074754;28;20408;-55
2022/06/09 14:11:37;;;;;;;5.25;1.58;;;22.30;75.90;;;;;;5074535;28;20040;-48
2022/06/09 14:14:24;;;;;;;7.15;1.40;;;22.20;77.00;;;;;;5078291;28;20044;-53
2022/06/09 14:16:50;;;;;;;7.47;1.88;;;22.10;76.80;;;;;;5073143;28;20601;-50
2022/06/09 14:19:17;;;;;;;6.53;1.77;;;21.90;77.10;;;;;;5078125;28;20040;-50
2022/06/09 14:21:44;;;;;;;8.02;1.88;;;21.90;77.80;;;;;;5075263;28;20037;-53
2022/06/09 14:24:11;;;;;;;5.70;1.40;;;22.00;77.30;;;;;;5077073;28;20475;-49
2022/06/09 14:26:37;;;;;;;7.25;1.65;;;22.00;76.80;;;;;;5074907;28;20060;-57
2022/06/09 14:29:04;;;;;;;8.98;1.75;;;22.10;77.60;;;;;;5075333;28;20056;-51
2022/06/09 14:31:31;;;;;;;6.50;1.38;;;22.10;76.80;;;;;;5074190;28;20434;-50
2022/06/09 14:33:58;;;;;;;5.28;1.58;;;22.10;77.10;;;;;;5073220;28;20461;-48
2022/06/09 14:36:28;;;;;;;9.93;1.92;;;22.10;77.80;;;;;;5073145;28;20045;-55
2022/06/09 14:38:55;;;;;;;6.95;1.60;;;22.10;77.50;;;;;;5076756;28;20040;-52
2022/06/09 14:41:21;;;;;;;8.10;2.10;;;22.00;77.60;;;;;;5074188;28;20118;-57
2022/06/09 14:43:48;;;;;;;7.75;1.63;;;21.90;77.80;;;;;;5075548;28;20051;-53
2022/06/09 14:46:15;;;;;;;8.20;1.85;;;22.00;77.80;;;;;;5072460;28;20059;-56
2022/06/09 14:48:42;;;;;;;10.60;2.28;;;22.20;78.10;;;;;;5073924;28;20395;-51
2022/06/09 14:51:09;;;;;;;7.32;1.90;;;22.20;77.70;;;;;;5073774;28;20041;-49
2022/06/09 14:53:36;;;;;;;9.07;2.20;;;22.20;77.80;;;;;;5073330;28;20045;-54
2022/06/09 14:56:02;;;;;;;8.82;2.00;;;22.20;77.50;;;;;;5075498;28;20044;-50
2022/06/09 14:58:29;;;;;;;7.50;2.08;;;22.00;76.90;;;;;;5072422;28;20094;-49
2022/06/09 15:00:56;;;;;;;7.38;1.90;;;22.00;77.10;;;;;;5073611;28;20484;-51
2022/06/09 15:03:23;;;;;;;7.05;1.85;;;21.90;77.60;;;;;;5072959;28;20032;-53
2022/06/09 15:05:58;;;;;;;;;;;22.00;77.70;;;;;;5073793;28;20040;-53
2022/06/09 15:08:24;;;;;;;6.60;1.95;;;22.10;78.10;;;;;;5072182;28;20318;-50
2022/06/09 15:10:52;;;;;;;11.05;2.80;;;21.90;79.80;;;;;;5073322;28;20044;-52
2022/06/09 15:13:19;;;;;;;12.05;2.92;;;21.70;80.40;;;;;;5073210;28;20037;-52
2022/06/09 15:15:46;;;;;;;11.82;2.50;;;21.60;81.30;;;;;;5073377;28;20150;-51
2022/06/09 15:18:13;;;;;;;10.48;2.70;;;21.50;81.50;;;;;;5073295;28;20510;-50
2022/06/09 15:20:40;;;;;;;13.73;3.03;;;21.40;81.80;;;;;;5073113;28;20395;-61
2022/06/09 15:23:06;;;;;;;15.23;3.15;;;21.30;82.70;;;;;;5072928;28;20604;-49
2022/06/09 15:25:34;;;;;;;9.32;2.60;;;21.30;83.40;;;;;;5079516;28;20040;-51
2022/06/09 15:28:01;;;;;;;9.18;2.53;;;21.40;83.90;;;;;;5073241;28;20090;-53
2022/06/09 15:30:28;;;;;;;14.23;2.95;;;21.50;83.90;;;;;;5073213;28;20463;-50
2022/06/09 15:32:54;;;;;;;9.95;2.67;;;21.40;83.70;;;;;;5073009;28;20036;-52
2022/06/09 15:35:21;;;;;;;13.52;3.03;;;21.30;83.90;;;;;;5072933;28;20083;-51
2022/06/09 15:37:48;;;;;;;9.75;2.92;;;21.30;84.30;;;;;;5073030;28;20079;-55
2022/06/09 15:40:15;;;;;;;11.85;2.75;;;21.20;84.90;;;;;;5066557;28;20044;-48
2022/06/09 15:42:42;;;;;;;16.42;3.20;;;21.30;85.60;;;;;;5071303;28;20444;-56
2022/06/09 15:45:08;;;;;;;17.67;3.25;;;21.40;85.60;;;;;;5066081;28;20065;-53
2022/06/09 15:47:35;;;;;;;13.82;2.78;;;21.50;84.20;;;;;;5072813;28;20045;-52
2022/06/09 15:50:02;;;;;;;10.63;2.55;;;21.40;84.00;;;;;;5072717;28;20043;-51
2022/06/09 15:52:29;;;;;;;10.45;2.50;;;21.40;83.10;;;;;;5072743;28;20036;-51
2022/06/09 15:54:55;;;;;;;11.80;2.92;;;21.40;83.60;;;;;;5077205;28;20051;-54
2022/06/09 15:57:22;;;;;;;14.02;2.58;;;21.40;84.00;;;;;;5072910;28;20103;-49
2022/06/09 15:59:49;;;;;;;10.65;2.83;;;21.40;85.00;;;;;;5073944;28;20491;-54
2022/06/09 16:02:16;;;;;;;12.23;3.60;;;21.30;85.30;;;;;;5072939;28;20032;-51
2022/06/09 16:04:42;;;;;;;12.95;2.85;;;21.30;85.30;;;;;;5072498;28;20029;-52
2022/06/09 16:07:09;;;;;;;13.38;2.90;;;21.30;86.30;;;;;;5073898;28;20419;-53
2022/06/09 16:09:36;;;;;;;9.73;2.92;;;21.20;87.00;;;;;;5072733;28;20041;-54
2022/06/09 16:12:03;;;;;;;12.73;3.10;;;21.30;87.20;;;;;;5071666;28;20097;-57
2022/06/09 16:14:29;;;;;;;14.05;2.72;;;21.20;87.20;;;;;;5072641;28;20041;-51
2022/06/09 16:16:56;;;;;;;11.48;2.95;;;21.30;87.30;;;;;;5077269;28;20041;-56
2022/06/09 16:19:26;;;;;;;10.77;2.40;;;21.30;85.70;;;;;;5076711;28;20056;-54
2022/06/09 16:21:53;;;;;;;7.43;2.00;;;21.20;83.10;;;;;;5077639;28;20044;-47
2022/06/09 16:24:19;;;;;;;10.30;2.33;;;21.20;82.60;;;;;;5077067;28;20037;-45
2022/06/09 16:26:46;;;;;;;10.60;1.90;;;21.10;83.30;;;;;;5076580;28;20072;-49
2022/06/09 16:29:13;;;;;;;8.27;2.00;;;21.00;82.20;;;;;;5074865;28;20064;-44
2022/06/09 16:31:40;;;;;;;9.30;1.85;;;21.00;82.60;;;;;;5074773;28;20479;-49
2022/06/09 16:34:07;;;;;;;8.10;1.85;;;20.90;81.40;;;;;;5075717;28;20514;-47
2022/06/09 16:36:33;;;;;;;6.18;1.75;;;20.90;81.60;;;;;;5080279;28;20036;-48
2022/06/09 16:39:03;;;;;;;12.05;2.33;;;20.70;81.90;;;;;;5081836;28;20473;-46
2022/06/09 16:41:30;;;;;;;5.38;1.73;;;20.40;85.30;;;;;;5084258;28;20097;-45
2022/06/09 16:43:57;;;;;;;5.90;2.20;;;20.30;86.60;;;;;;5079480;28;20040;-50
2022/06/09 16:46:24;;;;;;;11.20;2.17;;;20.10;88.80;;;;;;5076188;28;20036;-43
2022/06/09 16:48:51;;;;;;;8.40;2.00;;;20.00;90.20;;;;;;5073232;28;20032;-48
2022/06/09 16:51:17;;;;;;;10.88;2.08;;;20.00;92.20;;;;;;5080610;28;20075;-43
2022/06/09 16:53:44;;;;;;;9.95;2.20;;;19.80;92.70;;;;;;5083423;28;20052;-50
2022/06/09 16:56:11;;;;;;;14.80;3.05;;;19.60;93.50;;;;;;5075998;28;20094;-50
2022/06/09 16:58:38;;;;;;;8.05;2.17;;;19.40;94.80;;;;;;5082101;28;20559;-44
2022/06/09 17:01:05;;;;;;;8.05;1.95;;;19.30;94.90;;;;;;5082255;28;20040;-49
2022/06/09 17:03:32;;;;;;;9.00;2.45;;;19.30;94.90;;;;;;5077969;28;20048;-52
2022/06/09 17:05:59;;;;;;;12.20;2.85;;;19.20;95.50;;;;;;5073104;28;20041;-51
2022/06/09 17:08:25;;;;;;;8.77;1.98;;;19.10;95.30;;;;;;5067525;28;20044;-51
2022/06/09 17:10:52;;;;;;;12.15;2.05;;;19.10;95.50;;;;;;5076429;28;20083;-51
2022/06/09 17:13:19;;;;;;;9.10;2.38;;;19.10;95.90;;;;;;5074889;28;20482;-52
2022/06/09 17:15:46;;;;;;;12.52;2.38;;;19.10;95.80;;;;;;5069018;28;20041;-53
2022/06/09 17:18:13;;;;;;;11.10;2.35;;;19.10;95.80;;;;;;5072749;28;20409;-49
2022/06/09 17:20:39;;;;;;;11.38;2.30;;;19.10;95.90;;;;;;5074065;28;20052;-50
2022/06/09 17:23:06;;;;;;;12.88;2.42;;;19.20;96.00;;;;;;5074749;28;20059;-52
2022/06/09 17:25:33;;;;;;;11.93;2.45;;;19.30;96.50;;;;;;5073247;28;20032;-47
2022/06/09 17:28:00;;;;;;;11.60;1.95;;;19.40;95.90;;;;;;5068986;28;20047;-46
2022/06/09 17:30:27;;;;;;;8.48;2.15;;;19.60;95.80;;;;;;5074227;28;20075;-47
2022/06/09 17:32:57;;;;;;;8.32;2.00;;;19.70;96.10;;;;;;5070195;28;20041;-46
2022/06/09 17:35:24;;;;;;;10.52;2.13;;;19.80;96.10;;;;;;5072424;28;20057;-45
2022/06/09 17:37:51;;;;;;;11.63;2.08;;;19.90;95.30;;;;;;5074710;28;20487;-47
2022/06/09 17:40:18;;;;;;;13.63;2.65;;;19.90;95.20;;;;;;5075602;28;20041;-47
2022/06/09 17:42:44;;;;;;;12.60;3.00;;;19.90;95.60;;;;;;5074884;28;20105;-49
2022/06/09 17:45:12;;;;;;;13.35;3.20;;;20.00;95.60;;;;;;5073897;28;20037;-49
2022/06/09 17:47:39;;;;;;;7.80;2.22;;;20.00;95.40;;;;;;5074952;28;20036;-50
2022/06/09 17:50:12;;;;;;;14.05;2.80;;;20.10;95.80;;;;;;5070924;28;20040;-47
2022/06/09 17:52:39;;;;;;;8.80;2.03;;;20.10;94.80;;;;;;5074914;28;20087;-56
2022/06/09 17:55:07;;;;;;;12.07;2.70;;;20.10;95.00;;;;;;5073317;28;20075;-52
2022/06/09 17:57:34;;;;;;;12.02;2.88;;;20.20;94.30;;;;;;5072421;28;20455;-51
2022/06/09 18:00:00;;;;;;;10.77;2.65;;;20.20;94.20;;;;;;5072978;28;20045;-52
2022/06/09 18:02:30;;;;;;;11.48;2.78;;;20.20;93.80;;;;;;5064045;28;20037;-54
2022/06/09 18:04:57;;;;;;;13.57;2.70;;;20.20;94.10;;;;;;5067532;28;20090;-56
2022/06/09 18:07:24;;;;;;;9.93;2.22;;;20.10;93.90;;;;;;5072200;28;20044;-57
2022/06/09 18:09:51;;;;;;;13.05;2.38;;;20.00;94.30;;;;;;5075327;28;20383;-62
2022/06/09 18:12:19;;;;;;;13.48;2.38;;;19.90;94.50;;;;;;5072943;28;20041;-56
2022/06/09 18:14:46;;;;;;;8.18;2.50;;;19.90;94.40;;;;;;5071229;28;20036;-54
2022/06/09 18:17:13;;;;;;;11.52;2.30;;;19.80;94.20;;;;;;5072813;28;20037;-54
2022/06/09 18:19:40;;;;;;;9.02;2.33;;;19.70;94.00;;;;;;5070583;28;20522;-54
2022/06/09 18:22:07;;;;;;;8.85;1.95;;;19.70;94.30;;;;;;5072949;28;20044;-51
2022/06/09 18:24:35;;;;;;;7.15;1.88;;;19.70;93.70;;;;;;5071490;28;20064;-55
2022/06/09 18:27:04;;;;;;;10.88;1.95;;;19.60;94.00;;;;;;5070711;28;20423;-57
2022/06/09 18:29:30;;;;;;;12.40;2.00;;;19.50;94.00;;;;;;5070835;28;20039;-50
2022/06/09 18:31:57;;;;;;;11.50;2.38;;;19.50;94.00;;;;;;5072427;28;20040;-51
2022/06/09 18:34:24;;;;;;;9.23;1.92;;;19.50;94.00;;;;;;5069420;28;20442;-56
2022/06/09 18:36:51;;;;;;;13.68;2.63;;;19.50;94.10;;;;;;5078601;28;20036;-53
2022/06/09 18:39:18;;;;;;;8.85;2.38;;;19.50;94.20;;;;;;5065322;28;20075;-53
2022/06/09 18:41:44;;;;;;;9.48;2.30;;;19.40;94.20;;;;;;5074479;28;20044;-55
2022/06/09 18:44:11;;;;;;;11.90;2.33;;;19.40;94.50;;;;;;5071151;28;20142;-58
2022/06/09 18:46:39;;;;;;;11.00;1.73;;;19.30;94.50;;;;;;5071871;28;20131;-58
2022/06/09 18:49:06;;;;;;;11.75;2.05;;;19.30;94.60;;;;;;5075354;28;20434;-58
2022/06/09 18:51:33;;;;;;;8.95;2.10;;;19.10;94.80;;;;;;5072905;28;20067;-55
2022/06/09 18:53:59;;;;;;;10.77;2.13;;;19.10;94.70;;;;;;5067701;28;20040;-51
2022/06/09 18:56:26;;;;;;;8.25;2.00;;;19.10;94.80;;;;;;5065574;28;20040;-53
2022/06/09 18:58:53;;;;;;;7.45;1.92;;;19.00;95.00;;;;;;5072057;28;20392;-56
2022/06/09 19:01:20;;;;;;;10.82;2.33;;;19.00;95.00;;;;;;5077902;28;20041;-53
2022/06/09 19:03:47;;;;;;;10.90;2.00;;;19.00;95.20;;;;;;5068080;28;20038;-55
2022/06/09 19:06:14;;;;;;;9.55;2.35;;;18.90;95.10;;;;;;5073541;28;20045;-57
2022/06/09 19:08:41;;;;;;;10.90;2.05;;;18.90;95.00;;;;;;5069752;28;20471;-53
2022/06/09 19:11:08;;;;;;;9.20;2.08;;;18.80;94.90;;;;;;5068283;28;20048;-53
2022/06/09 19:13:35;;;;;;;12.30;2.15;;;18.70;95.20;;;;;;5072913;28;20120;-56
2022/06/09 19:16:02;;;;;;;11.10;2.63;;;18.70;94.70;;;;;;5073272;28;20063;-57
2022/06/09 19:18:28;;;;;;;10.65;2.28;;;18.70;94.80;;;;;;5071668;28;20045;-58
2022/06/09 19:20:55;;;;;;;11.55;2.33;;;18.70;94.90;;;;;;5075398;28;20075;-56
2022/06/09 19:23:26;;;;;;;10.52;2.22;;;18.70;95.00;;;;;;5072685;28;20075;-54
2022/06/09 19:25:52;;;;;;;8.73;2.08;;;18.60;95.30;;;;;;5072114;28;20481;-56
2022/06/09 19:28:19;;;;;;;10.07;2.58;;;18.50;95.50;;;;;;5068239;28;20052;-50
2022/06/09 19:30:47;;;;;;;11.57;2.33;;;18.50;95.70;;;;;;5070492;28;20037;-56
2022/06/09 19:33:14;;;;;;;10.93;2.33;;;18.50;95.90;;;;;;5066054;28;20037;-58
2022/06/09 19:35:41;;;;;;;13.13;2.53;;;18.50;96.10;;;;;;5070213;28;20094;-56
2022/06/09 19:38:08;;;;;;;9.93;2.75;;;18.40;96.20;;;;;;5066202;28;20058;-57
2022/06/09 19:40:36;;;;;;;8.95;2.67;;;18.40;96.40;;;;;;5072768;28;20045;-54
2022/06/09 19:43:03;;;;;;;11.65;2.30;;;18.30;96.60;;;;;;5073232;28;20438;-52
2022/06/09 19:45:30;;;;;;;12.90;2.95;;;18.30;96.90;;;;;;5071328;28;20058;-53
2022/06/09 19:47:56;;;;;;;6.22;1.88;;;18.20;97.20;;;;;;5073035;28;20045;-52
2022/06/09 19:50:23;;;;;;;11.90;2.40;;;18.20;97.50;;;;;;5073130;28;20068;-53
2022/06/09 19:52:50;;;;;;;8.25;1.98;;;18.10;97.80;;;;;;5080913;28;20500;-51
2022/06/09 19:55:17;;;;;;;9.00;1.90;;;18.10;98.10;;;;;;5074209;28;20079;-56
2022/06/09 19:57:44;;;;;;;10.93;1.95;;;18.00;98.40;;;;;;5074984;28;20043;-54
2022/06/09 20:00:13;;;;;;;7.55;2.13;;;18.00;98.80;;;;;;5069167;28;20112;-56
2022/06/09 20:02:41;;;;;;;8.00;2.00;;;18.00;98.70;;;;;;5066662;28;20036;-51
2022/06/09 20:05:07;;;;;;;10.98;1.92;;;18.00;98.90;;;;;;5067722;28;20068;-51
2022/06/09 20:07:34;;;;;;;8.23;2.10;;;17.90;99.10;;;;;;5073072;28;20043;-57
2022/06/09 20:10:01;;;;;;;9.30;2.22;;;18.00;99.30;;;;;;5066983;28;20449;-54
2022/06/09 20:12:28;;;;;;;12.65;2.30;;;18.00;99.20;;;;;;5069912;28;20399;-55
2022/06/09 20:14:54;;;;;;;10.85;2.25;;;18.00;99.20;;;;;;5069411;28;20382;-53
2022/06/09 20:17:21;;;;;;;9.57;2.03;;;18.00;99.40;;;;;;5066426;28;20045;-57
2022/06/09 20:19:48;;;;;;;7.38;2.08;;;17.90;99.70;;;;;;5072213;28;20040;-52
2022/06/09 20:22:15;;;;;;;10.45;2.17;;;17.90;99.90;;;;;;5071132;28;20041;-53
2022/06/09 20:24:42;;;;;;;10.30;2.40;;;17.90;99.90;;;;;;5070498;28;20047;-59
2022/06/09 20:27:09;;;;;;;10.32;2.30;;;17.90;99.90;;;;;;5072443;28;20060;-52
2022/06/09 20:29:35;;;;;;;8.32;1.88;;;17.90;99.90;;;;;;5063973;28;20079;-56
2022/06/09 20:32:02;;;;;;;15.50;2.40;;;17.90;99.90;;;;;;5066093;28;20446;-54
2022/06/09 20:34:31;;;;;;;9.07;2.20;;;17.80;99.90;;;;;;5077451;28;20128;-55
2022/06/09 20:36:58;;;;;;;10.30;2.10;;;17.80;99.90;;;;;;5068201;28;20049;-49
2022/06/09 20:39:25;;;;;;;8.45;2.00;;;17.80;99.90;;;;;;5069622;28;20086;-59
2022/06/09 20:41:52;;;;;;;16.45;2.53;;;17.80;99.90;;;;;;5070427;28;20494;-57
2022/06/09 20:44:19;;;;;;;11.50;2.08;;;17.70;99.90;;;;;;5068244;28;20676;-59
2022/06/09 20:46:46;;;;;;;9.25;2.50;;;17.70;99.90;;;;;;5072403;28;20033;-56
2022/06/09 20:49:12;;;;;;;13.05;2.75;;;17.70;99.90;;;;;;5067962;28;20095;-55
2022/06/09 20:51:39;;;;;;;9.68;2.42;;;17.70;99.90;;;;;;5071182;28;20476;-56